createdAt,value
2022-10-19T00:02:08.464Z,19.70
2022-10-19T00:04:34.999Z,18.87
2022-10-19T00:07:01.407Z,16.80
2022-10-19T00:09:29.147Z,19.00
2022-10-19T00:11:56.337Z,18.87
2022-10-19T00:14:24.273Z,17.80
2022-10-19T00:16:53.010Z,17.63
2022-10-19T00:19:23.444Z,17.07
2022-10-19T00:24:22.278Z,17.10
2022-10-19T00:26:48.711Z,16.53
2022-10-19T00:29:15.648Z,16.60
2022-10-19T00:31:42.355Z,16.80
2022-10-19T00:34:09.097Z,16.70
2022-10-19T00:36:40.032Z,15.83
2022-10-19T00:39:10.403Z,16.87
2022-10-19T00:41:37.116Z,16.13
2022-10-19T00:44:07.142Z,17.57
2022-10-19T00:46:37.031Z,16.80
2022-10-19T00:49:27.326Z,16.43
2022-10-19T00:51:56.865Z,16.50
2022-10-19T00:54:24.066Z,17.73
2022-10-19T00:56:52.211Z,17.47
2022-10-19T00:59:20.960Z,18.20
2022-10-19T01:01:48.207Z,19.63
2022-10-19T01:04:15.071Z,21.63
2022-10-19T01:06:42.060Z,21.87
2022-10-19T01:09:09.268Z,21.73
2022-10-19T01:11:59.104Z,23.17
2022-10-19T01:14:28.013Z,23.33
2022-10-19T01:17:06.552Z,23.70
2022-10-19T01:20:05.487Z,24.70
2022-10-19T01:23:09.053Z,25.00
2022-10-19T01:25:56.969Z,24.70
2022-10-19T01:28:32.587Z,24.60
2022-10-19T01:31:03.921Z,24.70
2022-10-19T01:33:33.542Z,23.67
2022-10-19T01:36:09.227Z,22.80
2022-10-19T01:38:44.840Z,22.43
2022-10-19T01:41:16.617Z,22.73
2022-10-19T01:44:08.023Z,23.00
2022-10-19T01:46:39.528Z,22.47
2022-10-19T01:49:13.419Z,20.90
2022-10-19T01:51:43.960Z,20.20
2022-10-19T01:54:12.728Z,21.20
2022-10-19T01:56:42.380Z,20.73
2022-10-19T01:59:10.608Z,20.40
2022-10-19T02:01:39.787Z,20.37
2022-10-19T02:04:06.714Z,19.50
2022-10-19T02:06:33.240Z,20.03
2022-10-19T02:09:00.085Z,20.97
2022-10-19T02:11:26.612Z,19.60
2022-10-19T02:13:58.551Z,19.50
2022-10-19T02:16:38.627Z,19.83
2022-10-19T02:19:08.592Z,22.30
2022-10-19T02:21:35.228Z,21.47
2022-10-19T02:24:01.646Z,21.70
2022-10-19T02:26:28.260Z,21.50
2022-10-19T02:28:56.179Z,20.07
2022-10-19T02:31:23.036Z,20.13
2022-10-19T02:33:49.530Z,21.57
2022-10-19T02:36:16.128Z,21.20
2022-10-19T02:38:42.651Z,20.57
2022-10-19T02:41:15.752Z,18.80
2022-10-19T02:43:43.072Z,18.50
2022-10-19T02:46:36.810Z,19.17
2022-10-19T02:49:04.510Z,20.23
2022-10-19T02:51:36.790Z,19.17
2022-10-19T02:54:05.457Z,20.27
2022-10-19T02:56:33.378Z,19.03
2022-10-19T02:59:00.112Z,19.23
2022-10-19T03:01:26.847Z,18.17
2022-10-19T03:03:53.305Z,17.83
2022-10-19T03:06:20.020Z,18.90
2022-10-19T03:08:46.773Z,17.67
2022-10-19T03:11:13.228Z,17.73
2022-10-19T03:13:41.339Z,18.73
2022-10-19T03:16:09.703Z,19.07
2022-10-19T03:18:36.281Z,20.30
2022-10-19T03:21:08.421Z,19.60
2022-10-19T03:23:35.209Z,19.87
2022-10-19T03:26:01.712Z,20.03
2022-10-19T03:28:28.668Z,20.37
2022-10-19T03:30:55.224Z,19.40
2022-10-19T03:33:22.500Z,20.43
2022-10-19T03:35:49.114Z,20.37
2022-10-19T03:38:16.190Z,21.10
2022-10-19T03:40:42.796Z,22.37
2022-10-19T03:43:09.326Z,21.37
2022-10-19T03:45:35.980Z,22.00
2022-10-19T03:48:02.438Z,20.17
2022-10-19T03:50:28.901Z,20.37
2022-10-19T03:52:55.585Z,18.97
2022-10-19T03:55:22.455Z,21.07
2022-10-19T03:57:48.960Z,19.83
2022-10-19T04:00:15.804Z,18.27
2022-10-19T04:02:42.344Z,18.23
2022-10-19T04:05:09.101Z,19.30
2022-10-19T04:07:35.874Z,19.47
2022-10-19T04:10:02.465Z,18.37
2022-10-19T04:12:29.097Z,17.67
2022-10-19T04:14:57.778Z,16.57
2022-10-19T04:17:25.488Z,17.53
2022-10-19T04:19:51.992Z,17.30
2022-10-19T04:22:18.476Z,16.03
2022-10-19T04:24:44.965Z,15.60
2022-10-19T04:27:11.592Z,15.50
2022-10-19T04:29:38.064Z,14.67
2022-10-19T04:32:04.664Z,15.10
2022-10-19T04:34:35.158Z,15.37
2022-10-19T04:37:04.157Z,13.47
2022-10-19T04:39:32.769Z,14.27
2022-10-19T04:41:59.327Z,13.07
2022-10-19T04:44:25.808Z,14.37
2022-10-19T04:46:52.378Z,12.90
2022-10-19T04:49:20.334Z,13.37
2022-10-19T04:51:46.970Z,13.27
2022-10-19T04:54:13.552Z,13.23
2022-10-19T04:56:40.111Z,13.17
2022-10-19T04:59:06.631Z,13.97
2022-10-19T05:01:33.271Z,12.23
2022-10-19T05:04:01.481Z,12.23
2022-10-19T05:06:28.296Z,12.07
2022-10-19T05:08:54.885Z,12.43
2022-10-19T05:11:21.630Z,12.33
2022-10-19T05:13:48.553Z,12.07
2022-10-19T05:16:18.072Z,12.03
2022-10-19T05:18:51.399Z,11.10
2022-10-19T05:21:18.892Z,11.03
2022-10-19T05:23:45.424Z,10.30
2022-10-19T05:26:17.638Z,9.50
2022-10-19T05:28:52.000Z,9.77
2022-10-19T05:31:20.700Z,9.67
2022-10-19T05:33:47.277Z,9.77
2022-10-19T05:36:14.805Z,8.63
2022-10-19T05:38:42.311Z,8.07
2022-10-19T05:41:08.880Z,8.83
2022-10-19T05:43:35.431Z,8.67
2022-10-19T05:46:10.548Z,6.93
2022-10-19T05:48:37.640Z,7.43
2022-10-19T05:51:05.684Z,7.50
2022-10-19T05:53:33.385Z,7.20
2022-10-19T05:56:00.136Z,6.30
2022-10-19T05:58:26.860Z,6.63
2022-10-19T06:00:54.262Z,6.30
2022-10-19T06:03:22.314Z,6.23
2022-10-19T06:05:49.572Z,6.00
2022-10-19T06:08:17.473Z,6.10
2022-10-19T06:10:44.855Z,6.13
2022-10-19T06:13:12.239Z,6.30
2022-10-19T06:15:40.428Z,6.40
2022-10-19T06:18:07.647Z,6.23
2022-10-19T06:20:35.479Z,6.53
2022-10-19T06:23:02.684Z,6.07
2022-10-19T06:25:33.686Z,6.27
2022-10-19T06:28:00.715Z,5.87
2022-10-19T06:30:27.809Z,6.17
2022-10-19T06:32:54.677Z,5.80
2022-10-19T06:35:21.521Z,6.20
2022-10-19T06:37:47.983Z,5.90
2022-10-19T06:40:14.574Z,5.83
2022-10-19T06:42:41.088Z,6.47
2022-10-19T06:45:10.797Z,6.83
2022-10-19T06:47:37.780Z,6.20
2022-10-19T06:50:06.559Z,6.57
2022-10-19T06:52:34.408Z,6.33
2022-10-19T06:55:01.593Z,6.47
2022-10-19T06:57:28.737Z,7.47
2022-10-19T06:59:55.604Z,6.70
2022-10-19T07:02:22.524Z,6.57
2022-10-19T07:04:48.973Z,6.63
2022-10-19T07:07:15.607Z,6.47
2022-10-19T07:09:42.034Z,7.00
2022-10-19T07:12:10.774Z,5.93
2022-10-19T07:14:39.665Z,4.87
2022-10-19T07:17:06.975Z,5.33
2022-10-19T07:19:34.095Z,4.87
2022-10-19T07:22:00.653Z,4.90
2022-10-19T07:24:27.145Z,4.90
2022-10-19T07:26:53.805Z,4.10
2022-10-19T07:29:20.838Z,4.50
2022-10-19T07:31:47.661Z,3.60
2022-10-19T07:34:14.926Z,3.90
2022-10-19T07:36:45.364Z,3.63
2022-10-19T07:39:13.232Z,3.53
2022-10-19T07:41:40.211Z,3.67
2022-10-19T07:44:08.209Z,3.70
2022-10-19T07:46:39.237Z,3.53
2022-10-19T07:49:09.869Z,3.10
2022-10-19T07:51:40.037Z,3.40
2022-10-19T07:54:06.744Z,4.37
2022-10-19T07:56:33.363Z,4.10
2022-10-19T07:59:00.477Z,3.97
2022-10-19T08:01:34.890Z,3.97
2022-10-19T08:06:48.236Z,3.83
2022-10-19T08:09:33.423Z,4.30
2022-10-19T08:12:01.948Z,4.17
2022-10-19T08:14:28.464Z,3.33
2022-10-19T08:16:54.905Z,4.00
2022-10-19T08:19:22.664Z,4.50
2022-10-19T08:21:49.172Z,4.03
2022-10-19T08:24:17.805Z,5.13
2022-10-19T08:26:44.671Z,5.50
2022-10-19T08:29:16.556Z,5.17
2022-10-19T08:31:44.170Z,6.23
2022-10-19T08:34:11.586Z,5.93
2022-10-19T08:36:38.183Z,6.90
2022-10-19T08:39:06.790Z,7.23
2022-10-19T08:41:38.218Z,7.13
2022-10-19T08:44:25.871Z,7.27
2022-10-19T08:47:02.399Z,6.83
2022-10-19T08:49:31.518Z,6.83
2022-10-19T08:52:00.793Z,7.23
2022-10-19T08:54:44.139Z,6.60
2022-10-19T08:57:25.152Z,6.20
2022-10-19T09:00:06.885Z,6.50
2022-10-19T09:02:45.360Z,6.23
2022-10-19T09:05:45.443Z,5.33
2022-10-19T09:08:16.801Z,5.60
2022-10-19T09:10:47.136Z,5.40
2022-10-19T09:13:21.250Z,5.33
2022-10-19T09:15:49.442Z,5.03
2022-10-19T09:18:22.783Z,4.70
2022-10-19T09:20:51.124Z,4.10
2022-10-19T09:23:17.475Z,4.37
2022-10-19T09:25:43.959Z,4.13
2022-10-19T09:28:38.779Z,3.93
2022-10-19T09:31:07.775Z,3.70
2022-10-19T09:33:36.534Z,3.40
2022-10-19T09:36:05.327Z,3.43
2022-10-19T09:38:32.986Z,3.60
2022-10-19T09:41:12.901Z,3.87
2022-10-19T09:43:39.610Z,3.90
2022-10-19T09:46:19.768Z,4.00
2022-10-19T09:48:51.372Z,3.97
2022-10-19T09:51:18.846Z,3.80
2022-10-19T09:53:51.673Z,2.93
2022-10-19T09:56:24.153Z,2.20
2022-10-19T09:58:52.870Z,1.70
2022-10-19T10:01:43.217Z,2.27
2022-10-19T10:04:17.981Z,1.30
2022-10-19T10:06:47.286Z,0.80
2022-10-19T10:09:18.634Z,0.70
2022-10-19T10:11:48.119Z,0.50
2022-10-19T10:14:20.813Z,0.27
2022-10-19T10:16:47.656Z,0.70
2022-10-19T10:19:16.372Z,1.00
2022-10-19T10:21:51.124Z,0.40
2022-10-19T10:24:20.177Z,0.50
2022-10-19T10:26:52.629Z,0.40
2022-10-19T10:29:33.227Z,0.40
2022-10-19T10:32:05.368Z,0.30
2022-10-19T10:34:59.981Z,0.60
2022-10-19T10:37:38.391Z,0.33
2022-10-19T10:40:05.981Z,0.50
2022-10-19T10:42:37.188Z,0.60
2022-10-19T10:45:04.634Z,0.40
2022-10-19T10:47:32.541Z,0.50
2022-10-19T10:50:03.377Z,0.50
2022-10-19T10:52:34.202Z,0.30
2022-10-19T10:55:17.497Z,0.50
2022-10-19T10:57:48.319Z,0.77
2022-10-19T11:00:20.247Z,0.67
2022-10-19T11:02:52.445Z,0.80
2022-10-19T11:05:26.863Z,0.80
2022-10-19T11:07:58.996Z,0.77
2022-10-19T11:10:35.782Z,0.80
2022-10-19T11:13:28.233Z,0.83
2022-10-19T11:16:03.023Z,0.93
2022-10-19T11:18:34.938Z,1.33
2022-10-19T11:21:06.896Z,1.00
2022-10-19T11:23:55.569Z,1.30
2022-10-19T11:26:32.866Z,1.03
2022-10-19T11:29:50.662Z,1.50
2022-10-19T11:32:46.053Z,0.80
2022-10-19T11:35:36.579Z,0.60
2022-10-19T11:38:22.067Z,0.70
2022-10-19T11:43:45.712Z,0.60
2022-10-19T11:46:26.546Z,0.70
2022-10-19T11:49:20.363Z,0.60
2022-10-19T11:51:57.475Z,0.57
2022-10-19T11:54:58.288Z,0.60
2022-10-19T11:57:36.966Z,0.90
2022-10-19T12:00:15.314Z,0.93
2022-10-19T12:06:18.079Z,1.00
2022-10-19T12:09:10.668Z,0.57
2022-10-19T12:11:43.213Z,1.10
2022-10-19T12:14:13.941Z,0.50
2022-10-19T12:16:43.939Z,0.50
2022-10-19T12:19:19.965Z,0.57
2022-10-19T12:21:46.773Z,0.67
2022-10-19T12:24:19.785Z,0.70
2022-10-19T12:26:47.183Z,0.77
2022-10-19T12:29:21.255Z,0.47
2022-10-19T12:31:51.052Z,0.70
2022-10-19T12:34:33.397Z,0.80
2022-10-19T12:37:07.399Z,0.60
2022-10-19T12:39:39.801Z,0.50
2022-10-19T12:42:29.783Z,0.50
2022-10-19T12:45:18.523Z,0.60
2022-10-19T12:48:08.593Z,0.70
2022-10-19T12:50:56.865Z,0.67
2022-10-19T12:53:31.452Z,0.47
2022-10-19T12:56:23.023Z,0.47
2022-10-19T12:59:01.704Z,0.90
2022-10-19T13:01:34.110Z,0.53
2022-10-19T13:04:20.671Z,0.60
2022-10-19T13:06:51.957Z,0.70
2022-10-19T13:09:39.623Z,0.80
2022-10-19T13:12:19.455Z,0.50
2022-10-19T13:14:52.803Z,0.70
2022-10-19T13:17:35.034Z,0.70
2022-10-19T13:20:13.727Z,0.50
2022-10-19T13:22:44.969Z,0.60
2022-10-19T13:25:17.490Z,0.50
2022-10-19T13:27:45.237Z,0.50
2022-10-19T13:30:36.948Z,0.50
2022-10-19T13:33:25.434Z,0.60
2022-10-19T13:36:10.694Z,0.57
2022-10-19T13:38:45.078Z,0.80
2022-10-19T13:41:19.618Z,0.67
2022-10-19T13:44:14.998Z,0.60
2022-10-19T13:46:53.779Z,0.80
2022-10-19T13:49:33.027Z,0.90
2022-10-19T13:52:32.861Z,0.90
2022-10-19T13:55:46.445Z,0.60
2022-10-19T13:58:48.049Z,0.60
2022-10-19T14:01:23.371Z,0.60
2022-10-19T14:04:10.850Z,0.70
2022-10-19T14:07:05.607Z,0.60
2022-10-19T14:09:44.635Z,0.50
2022-10-19T14:12:25.498Z,0.90
2022-10-19T14:14:53.750Z,0.63
2022-10-19T14:17:24.603Z,0.60
2022-10-19T14:19:57.129Z,0.50
2022-10-19T14:22:26.578Z,0.57
2022-10-19T14:25:01.158Z,0.60
2022-10-19T14:27:27.672Z,0.70
2022-10-19T14:29:54.599Z,0.80
2022-10-19T14:32:27.130Z,0.60
2022-10-19T14:34:54.752Z,0.60
2022-10-19T14:37:23.646Z,0.90
2022-10-19T14:40:27.571Z,0.50
2022-10-19T14:42:55.226Z,0.60
2022-10-19T14:45:24.199Z,0.60
2022-10-19T14:47:56.032Z,0.60
2022-10-19T14:50:46.149Z,0.57
2022-10-19T14:53:20.812Z,0.53
2022-10-19T14:55:48.449Z,0.80
2022-10-19T14:58:19.315Z,0.57
2022-10-19T15:00:47.411Z,0.70
2022-10-19T15:03:21.932Z,0.80
2022-10-19T15:05:49.739Z,0.43
2022-10-19T15:08:48.557Z,0.43
2022-10-19T15:11:41.209Z,0.73
2022-10-19T15:14:15.762Z,0.70
2022-10-19T15:16:51.500Z,0.97
2022-10-19T15:19:33.358Z,0.83
2022-10-19T15:22:19.850Z,0.70
2022-10-19T15:25:21.905Z,0.87
2022-10-19T15:27:51.030Z,0.83
2022-10-19T15:30:17.473Z,0.70
2022-10-19T15:32:46.189Z,0.70
2022-10-19T15:35:20.406Z,1.17
2022-10-19T15:37:48.954Z,0.60
2022-10-19T15:40:36.662Z,0.60
2022-10-19T15:43:31.562Z,0.70
2022-10-19T15:46:03.449Z,0.90
2022-10-19T15:48:50.012Z,0.70
2022-10-19T15:51:33.936Z,0.77
2022-10-19T15:54:02.539Z,1.20
2022-10-19T15:56:32.395Z,2.27
2022-10-19T15:59:01.042Z,1.27
2022-10-19T16:01:29.807Z,1.27
2022-10-19T16:03:57.013Z,0.83
2022-10-19T16:06:25.901Z,1.10
2022-10-19T16:08:54.057Z,1.27
2022-10-19T16:11:21.858Z,1.03
2022-10-19T16:13:48.800Z,0.90
2022-10-19T16:16:26.997Z,0.73
2022-10-19T16:18:54.503Z,1.10
2022-10-19T16:21:24.843Z,0.90
2022-10-19T16:23:51.742Z,1.10
2022-10-19T16:26:19.198Z,1.27
2022-10-19T16:28:45.947Z,1.40
2022-10-19T16:31:12.576Z,1.10
2022-10-19T16:33:39.116Z,1.03
2022-10-19T16:36:07.068Z,1.23
2022-10-19T16:38:34.247Z,1.33
2022-10-19T16:41:06.017Z,1.20
2022-10-19T16:43:33.212Z,1.40
2022-10-19T16:46:00.820Z,1.50
2022-10-19T16:48:27.641Z,1.47
2022-10-19T16:51:06.762Z,1.70
2022-10-19T16:53:34.615Z,1.13
2022-10-19T16:56:05.626Z,1.37
2022-10-19T16:58:32.911Z,1.63
2022-10-19T17:01:02.256Z,1.40
2022-10-19T17:03:28.813Z,1.50
2022-10-19T17:05:55.469Z,1.33
2022-10-19T17:08:36.421Z,1.70
2022-10-19T17:11:10.811Z,1.30
2022-10-19T17:13:37.418Z,1.80
2022-10-19T17:16:05.756Z,2.57
2022-10-19T17:18:33.167Z,1.57
2022-10-19T17:21:07.643Z,1.60
2022-10-19T17:23:34.327Z,1.43
2022-10-19T17:26:01.213Z,1.30
2022-10-19T17:28:27.969Z,1.40
2022-10-19T17:30:54.631Z,1.33
2022-10-19T17:33:22.053Z,1.73
2022-10-19T17:35:48.512Z,1.40
2022-10-19T17:38:15.222Z,1.90
2022-10-19T17:40:41.643Z,1.90
2022-10-19T17:43:08.223Z,1.40
2022-10-19T17:45:34.913Z,1.93
2022-10-19T17:48:01.469Z,1.60
2022-10-19T17:50:27.906Z,1.90
2022-10-19T17:52:54.644Z,2.03
2022-10-19T17:57:48.891Z,1.63
2022-10-19T18:00:15.473Z,2.00
2022-10-19T18:02:44.362Z,1.40
2022-10-19T18:05:10.923Z,1.77
2022-10-19T18:07:37.756Z,2.23
2022-10-19T18:10:04.743Z,2.40
2022-10-19T18:12:32.162Z,2.20
2022-10-19T18:14:58.698Z,2.43
2022-10-19T18:17:27.654Z,2.70
2022-10-19T18:19:54.417Z,2.77
2022-10-19T18:22:21.883Z,2.47
2022-10-19T18:24:49.478Z,2.40
2022-10-19T18:27:15.982Z,2.50
2022-10-19T18:29:42.531Z,2.53
2022-10-19T18:32:09.101Z,2.10
2022-10-19T18:34:35.567Z,2.50
2022-10-19T18:37:02.169Z,2.67
2022-10-19T18:39:28.714Z,2.50
2022-10-19T18:41:55.313Z,2.17
2022-10-19T18:44:26.291Z,2.30
2022-10-19T18:46:53.836Z,2.53
2022-10-19T18:49:20.363Z,2.20
2022-10-19T18:51:50.745Z,2.30
2022-10-19T18:54:21.035Z,2.83
2022-10-19T18:56:47.673Z,2.53
2022-10-19T18:59:14.589Z,2.43
2022-10-19T19:01:41.130Z,2.53
2022-10-19T19:04:09.310Z,2.60
2022-10-19T19:06:36.945Z,3.63
2022-10-19T19:09:06.749Z,2.60
2022-10-19T19:11:36.901Z,3.10
2022-10-19T19:14:07.529Z,2.70
2022-10-19T19:16:37.025Z,3.10
2022-10-19T19:19:04.147Z,2.60
2022-10-19T19:21:31.569Z,3.30
2022-10-19T19:24:00.082Z,2.70
2022-10-19T19:26:28.789Z,2.57
2022-10-19T19:28:55.362Z,3.40
2022-10-19T19:31:21.951Z,2.57
2022-10-19T19:33:48.574Z,2.80
2022-10-19T19:36:16.936Z,3.07
2022-10-19T19:38:44.457Z,3.60
2022-10-19T19:41:13.000Z,3.13
2022-10-19T19:43:39.893Z,3.20
2022-10-19T19:46:09.602Z,3.40
2022-10-19T19:48:37.019Z,3.20
2022-10-19T19:51:03.617Z,3.13
2022-10-19T19:53:31.065Z,3.20
2022-10-19T19:55:57.679Z,3.07
2022-10-19T19:58:24.105Z,3.40
2022-10-19T20:00:50.517Z,3.40
2022-10-19T20:03:16.993Z,3.80
2022-10-19T20:05:43.483Z,3.60
2022-10-19T20:08:10.115Z,3.90
2022-10-19T20:10:40.348Z,3.30
2022-10-19T20:13:07.321Z,3.27
2022-10-19T20:15:37.311Z,3.60
2022-10-19T20:18:03.778Z,3.37
2022-10-19T20:20:30.546Z,3.20
2022-10-19T20:22:57.522Z,3.30
2022-10-19T20:25:24.126Z,3.23
2022-10-19T20:27:50.636Z,3.47
2022-10-19T20:30:19.018Z,3.07
2022-10-19T20:32:45.529Z,2.97
2022-10-19T20:35:11.972Z,3.33
2022-10-19T20:37:38.445Z,3.83
2022-10-19T20:40:08.515Z,3.00
2022-10-19T20:42:35.728Z,3.77
2022-10-19T20:45:02.515Z,3.37
2022-10-19T20:47:29.460Z,3.67
2022-10-19T20:49:55.947Z,3.57
2022-10-19T20:52:22.748Z,4.20
2022-10-19T20:54:49.329Z,3.60
2022-10-19T20:57:15.771Z,3.43
2022-10-19T20:59:43.803Z,3.17
2022-10-19T21:02:10.942Z,3.20
2022-10-19T21:04:37.692Z,3.93
2022-10-19T21:07:05.076Z,3.50
2022-10-19T21:09:32.208Z,4.17
2022-10-19T21:11:59.121Z,3.90
2022-10-19T21:14:28.875Z,4.10
2022-10-19T21:16:57.164Z,4.50
2022-10-19T21:19:25.541Z,4.53
2022-10-19T21:21:57.791Z,4.20
2022-10-19T21:24:26.955Z,4.50
2022-10-19T21:26:53.598Z,4.17
2022-10-19T21:29:20.168Z,4.43
2022-10-19T21:31:50.086Z,4.60
2022-10-19T21:34:19.251Z,4.50
2022-10-19T21:36:45.752Z,4.73
2022-10-19T21:39:12.223Z,5.10
2022-10-19T21:41:38.730Z,4.93
2022-10-19T21:44:05.326Z,5.03
2022-10-19T21:46:32.266Z,4.67
2022-10-19T21:48:58.738Z,4.80
2022-10-19T21:51:42.438Z,4.50
2022-10-19T21:56:43.610Z,4.67
2022-10-19T21:59:10.475Z,4.53
2022-10-19T22:01:40.154Z,4.87
2022-10-19T22:04:11.107Z,5.20
2022-10-19T22:06:37.722Z,4.53
2022-10-19T22:09:05.665Z,4.93
2022-10-19T22:11:32.365Z,5.50
2022-10-19T22:14:00.794Z,6.03
2022-10-19T22:16:28.810Z,5.70
2022-10-19T22:18:55.829Z,5.70
2022-10-19T22:21:28.701Z,5.57
2022-10-19T22:24:06.969Z,5.40
2022-10-19T22:26:36.312Z,5.47
2022-10-19T22:29:04.400Z,7.17
2022-10-19T22:31:32.649Z,5.43
2022-10-19T22:34:04.909Z,5.60
2022-10-19T22:36:32.260Z,6.20
2022-10-19T22:38:58.667Z,6.50
2022-10-19T22:41:25.213Z,7.47
2022-10-19T22:43:51.693Z,10.57
2022-10-19T22:46:18.195Z,9.70
2022-10-19T22:48:45.048Z,7.83
2022-10-19T22:51:11.495Z,8.27
2022-10-19T22:53:38.039Z,8.93
2022-10-19T22:56:05.152Z,9.10
2022-10-19T22:58:32.321Z,8.47
2022-10-19T23:01:03.782Z,9.50
2022-10-19T23:03:30.862Z,9.63
2022-10-19T23:05:57.503Z,10.10
2022-10-19T23:08:23.948Z,9.87
2022-10-19T23:10:50.384Z,8.70
2022-10-19T23:13:17.177Z,9.23
2022-10-19T23:15:44.752Z,9.30
2022-10-19T23:18:12.001Z,8.47
2022-10-19T23:20:38.487Z,9.60
2022-10-19T23:23:05.589Z,8.53
2022-10-19T23:28:03.795Z,7.83
2022-10-19T23:30:31.034Z,7.53
2022-10-19T23:32:57.594Z,8.00
2022-10-19T23:35:24.115Z,7.93
2022-10-19T23:37:50.641Z,7.07
2022-10-19T23:40:17.334Z,7.67
2022-10-19T23:42:43.826Z,7.70
2022-10-19T23:45:10.564Z,7.97
2022-10-19T23:47:37.390Z,7.57
2022-10-19T23:50:04.200Z,8.30
2022-10-19T23:52:31.082Z,7.47
2022-10-19T23:54:57.510Z,8.57
2022-10-19T23:57:23.953Z,8.23
2022-10-19T23:59:50.346Z,8.77
